Airfield :







YOU CAN JOIN US ON...

 
LOGIN :

Register | Disclaimer

   EN    FR    IT 

 









Legend :    VFR   Marginal VFR   IFR   Intensive IFR   Very Intensive IFR
Visi :
Ceiling :
>= 8 km
>= 3000ft
5 to 8 km
1000 to 3000 ft
1500m to 5 km
500 to 1000 ft
800 to 1500m
200 to 500 ft
< 800m
< 200 ft
Symbols :   Thunderstorms  Fog  Heavy snow  Heavy precipitations  Wind > 20 kt






- Airport Elevation : 22 ft
- IATA code : YDP


CYDP - Nain

CURRENT METAR :
  • 012100Z 03015G21KT 13SM -SHSN DRSN OVC025 M03/M05 A3069 RMK SC8 SLP396

EXPIRED METARs :
  • 012000Z 03021G28KT 15SM -SHSN DRSN OVC025 M03/M05 A3068 RMK SC8 SLP393
  • 011900Z 03025G34KT 15SM -SHSN DRSN OVC025 M03/M05 A3067 RMK SC8 SLP389

TAF TAF CYDP
Valid from the 01 at 20:00 until the 01 at 23:00 UTC


011939Z 0120/0123 02020G30KT 6SM -SN OVC025
TEMPO 0120/0123 2SM -SN OVC010
PROB30 0120/0123 2SM -FZDZ BR OVC008 RMK NXT FCST WILL BE ISSUED AT 020945Z



MET'MAP, your aeronautical weather chart ! - Copyright ORBIFLY December 2007 - Disclaimer

ORBIFLY MET'MAP TEAM :

Programming & Development : Alexandra Zaïnal
Concept & original design : Baudouin d'Aumeries
Assistance for programming : Marc-Olivier Méhu
Technical & hardware support : Manuel Goepfert

Contact : metmap@orbifly.com




SOURCES & CREDITS :

   NOAA